Time;durP1;ratioP1;P1;durP2;ratioP2;P2;SDS_P1;SDS_P2;PMS_P1;PMS_P2;Temp;Humidity;BMP_temperature;BMP_pressure;BME280_temperature;BME280_humidity;BME280_pressure;Samples;Min_cycle;Max_cycle;Signal;HPM_P1;HPM_P2
2022/02/08 00:04:43;;;;;;;32.67;5.93;;;4.70;99.90;;;;;;5869985;24;20030;-81
2022/02/08 00:07:24;;;;;;;27.83;6.22;;;5.60;99.90;;;;;;5877603;24;20684;-82
2022/02/08 00:10:18;;;;;;;31.30;5.97;;;5.50;99.90;;;;;;5849632;24;20013;-81
2022/02/08 00:12:50;;;;;;;29.45;6.78;;;5.40;99.90;;;;;;5869979;24;20062;-81
2022/02/08 00:15:40;;;;;;;31.27;6.80;;;5.50;99.90;;;;;;5847989;24;20014;-81
2022/02/08 00:18:50;;;;;;;34.58;7.13;;;5.40;99.90;;;;;;5871156;24;20033;-81
2022/02/08 00:22:03;;;;;;;33.38;7.43;;;4.80;99.90;;;;;;5949274;24;20012;-81
2022/02/08 00:36:01;;;;;;;39.10;7.28;;;4.80;99.90;;;;;;5879452;24;20547;-82
2022/02/08 00:39:29;;;;;;;34.20;6.85;;;5.60;99.90;;;;;;5877722;24;20024;-82
2022/02/08 00:56:01;;;;;;;;;;;;;;;;;;;;;
2022/02/08 00:59:53;;;;;;;48.85;7.97;;;6.60;99.90;;;;;;6216258;23;20333;-82
2022/02/08 01:04:03;;;;;;;48.63;8.05;;;5.70;99.90;;;;;;6093205;23;20025;-81
2022/02/08 01:06:54;;;;;;;33.28;7.72;;;6.00;99.90;;;;;;6123016;23;20061;-82
2022/02/08 01:14:22;;;;;;;;;;;;;;;;;;;;;
2022/02/08 01:17:18;;;;;;;31.85;7.63;;;6.00;99.90;;;;;;5875544;24;20026;-81
2022/02/08 01:20:39;;;;;;;30.95;7.88;;;6.20;99.90;;;;;;5875532;24;20020;-81
2022/02/08 01:34:52;;;;;;;;;;;;;;;;;;;;;
2022/02/08 02:07:13;;;;;;;31.20;10.43;;;6.30;99.90;;;;;;5008829;22;28665522;-81
2022/02/08 02:11:00;;;;;;;;;;;;;;;;;;;;;
2022/02/08 02:44:01;;;;;;;46.85;12.02;;;6.50;99.90;;;;;;6100374;23;20078;-82
2022/02/08 03:23:11;;;;;;;46.55;11.20;;;7.10;99.90;;;;;;6070361;23;20098;-82
2022/02/08 03:26:49;;;;;;;36.08;9.77;;;7.20;99.90;;;;;;6046061;23;20014;-81
2022/02/08 03:39:29;;;;;;;;;;;;;;;;;;;;;
2022/02/08 03:45:46;;;;;;;42.47;9.73;;;7.60;99.90;;;;;;5825087;24;20023;-82
2022/02/08 04:42:08;;;;;;;27.23;6.70;;;7.40;99.90;;;;;;5848648;24;20533;-82
2022/02/08 06:01:05;;;;;;;;;;;;;;;;;;;;;
2022/02/08 06:04:47;;;;;;;;;;;;;;;;;;;;;
2022/02/08 06:08:07;;;;;;;17.15;3.03;;;8.20;99.90;;;;;;6151586;22;20046;-80
2022/02/08 06:12:14;;;;;;;19.58;3.70;;;8.60;99.90;;;;;;6209963;23;20083;-81
2022/02/08 06:15:42;;;;;;;;;;;;;;;;;;;;;
2022/02/08 06:22:57;;;;;;;16.55;3.00;;;9.00;99.90;;;;;;5982561;23;20023;-80
2022/02/08 06:26:25;;;;;;;;;;;;;;;;;;;;;
2022/02/08 06:32:21;;;;;;;23.88;3.25;;;8.50;99.90;;;;;;5895270;24;20052;-79
2022/02/08 06:35:13;;;;;;;;;;;8.40;99.90;;;;;;5843982;24;20022;-76
2022/02/08 06:38:48;;;;;;;20.02;2.88;;;8.50;99.90;;;;;;5813237;24;19919;-81
2022/02/08 07:06:17;;;;;;;22.63;3.75;;;9.30;99.90;;;;;;6177498;22;1390378;-79
2022/02/08 07:09:14;;;;;;;14.52;2.50;;;8.90;99.90;;;;;;6039870;23;20090;-81
2022/02/08 07:11:46;;;;;;;19.55;3.38;;;8.40;99.90;;;;;;6017623;23;20031;-82
2022/02/08 07:14:12;;;;;;;17.02;2.60;;;9.20;99.90;;;;;;6017964;23;20704;-81
2022/02/08 07:16:38;;;;;;;17.90;3.00;;;9.70;99.90;;;;;;6017784;23;20181;-82
2022/02/08 07:19:06;;;;;;;16.35;2.35;;;9.50;99.90;;;;;;6017640;23;20093;-81
2022/02/08 07:22:06;;;;;;;19.35;2.72;;;8.60;99.90;;;;;;6016708;23;20332;-80
2022/02/08 07:24:31;;;;;;;13.20;2.30;;;8.60;99.90;;;;;;5989055;23;20038;-83
2022/02/08 07:26:57;;;;;;;20.00;2.85;;;8.60;99.90;;;;;;5989001;23;20488;-82
2022/02/08 07:29:23;;;;;;;22.02;3.38;;;8.80;99.90;;;;;;5966234;23;20034;-83
2022/02/08 07:31:56;;;;;;;16.10;2.65;;;8.60;99.90;;;;;;6010677;23;20107;-79
2022/02/08 07:34:29;;;;;;;18.25;2.88;;;8.60;99.90;;;;;;5989745;23;20037;-81
2022/02/08 07:36:59;;;;;;;14.95;2.30;;;9.10;99.90;;;;;;6038421;23;20011;-80
2022/02/08 07:42:26;;;;;;;11.77;2.10;;;8.70;99.90;;;;;;5983733;24;20424;-83
2022/02/08 07:44:52;;;;;;;11.38;2.10;;;8.90;99.90;;;;;;5938486;23;20099;-82
2022/02/08 07:47:17;;;;;;;14.52;2.42;;;8.80;99.90;;;;;;5989878;23;20099;-82
2022/02/08 07:49:43;;;;;;;18.42;2.33;;;8.80;99.90;;;;;;5989753;23;20520;-81
2022/02/08 07:52:09;;;;;;;18.88;2.63;;;8.80;99.90;;;;;;5988015;23;20030;-79
2022/02/08 07:54:35;;;;;;;24.55;3.55;;;8.70;99.90;;;;;;5965672;23;20433;-79
2022/02/08 07:57:01;;;;;;;19.10;2.75;;;8.80;99.90;;;;;;5989286;23;20019;-81
2022/02/08 07:59:49;;;;;;;17.73;3.10;;;8.70;99.90;;;;;;5965795;23;20060;-82
2022/02/08 08:02:14;;;;;;;21.10;2.92;;;8.80;99.90;;;;;;6034246;23;20014;-80
2022/02/08 08:04:43;;;;;;;20.50;2.85;;;8.90;99.90;;;;;;6039880;23;20037;-85
2022/02/08 08:07:21;;;;;;;17.73;3.00;;;8.70;99.90;;;;;;6034289;23;20035;-85
2022/02/08 08:09:47;;;;;;;19.80;2.90;;;8.90;99.90;;;;;;5988518;23;20135;-82
2022/02/08 08:12:14;;;;;;;17.60;2.60;;;8.70;99.90;;;;;;6013616;23;20082;-88
2022/02/08 08:14:41;;;;;;;16.88;2.50;;;9.70;99.90;;;;;;6013368;23;20346;-84
2022/02/08 08:17:41;;;;;;;20.35;2.88;;;8.90;99.90;;;;;;6010710;23;20419;-85
2022/02/08 08:20:07;;;;;;;19.60;2.63;;;8.90;99.90;;;;;;6131263;23;20010;-85
2022/02/08 08:22:33;;;;;;;15.68;2.72;;;9.00;99.90;;;;;;6103021;23;20054;-86
2022/02/08 08:25:07;;;;;;;17.30;2.72;;;8.90;99.90;;;;;;6103042;23;20327;-86
2022/02/08 08:27:43;;;;;;;19.17;2.97;;;9.00;99.90;;;;;;6128006;23;20165;-82
2022/02/08 08:30:10;;;;;;;19.42;2.50;;;9.70;99.90;;;;;;6105131;23;20025;-86
2022/02/08 08:32:39;;;;;;;18.67;2.58;;;9.10;99.90;;;;;;6103016;23;20290;-86
2022/02/08 08:35:07;;;;;;;14.75;2.92;;;9.00;99.90;;;;;;6152797;23;20093;-86
2022/02/08 08:37:37;;;;;;;13.48;2.65;;;8.90;99.90;;;;;;6158572;23;20084;-87
2022/02/08 08:40:13;;;;;;;18.88;2.95;;;9.00;99.90;;;;;;6183496;23;20013;-86
2022/02/08 08:42:54;;;;;;;16.17;3.20;;;9.00;99.90;;;;;;6183044;23;20013;-87
2022/02/08 08:53:28;;;;;;;18.35;2.88;;;9.30;99.90;;;;;;6182288;23;20128;-85
2022/02/08 08:55:55;;;;;;;19.23;2.92;;;9.10;99.90;;;;;;6158403;23;20036;-84
2022/02/08 08:58:21;;;;;;;16.33;2.90;;;9.90;99.90;;;;;;6182915;23;20017;-85
2022/02/08 09:00:46;;;;;;;18.73;2.53;;;9.60;99.90;;;;;;6183902;23;20016;-86
2022/02/08 09:03:13;;;;;;;16.15;2.75;;;9.20;99.90;;;;;;6183424;23;20091;-85
2022/02/08 09:05:39;;;;;;;17.67;3.22;;;9.30;99.90;;;;;;6182344;23;20028;-85
2022/02/08 09:08:06;;;;;;;25.55;3.17;;;9.20;99.90;;;;;;6184054;23;20013;-86
2022/02/08 09:10:42;;;;;;;15.13;2.92;;;9.40;99.90;;;;;;6158256;23;20020;-85
2022/02/08 09:16:00;;;;;;;23.33;3.10;;;9.20;99.90;;;;;;6184339;23;20021;-86
2022/02/08 09:26:33;;;;;;;22.05;3.38;;;9.30;99.90;;;;;;6182577;23;20100;-82
2022/02/08 09:29:07;;;;;;;17.15;3.22;;;9.80;99.90;;;;;;6180163;23;20024;-81
2022/02/08 09:31:35;;;;;;;12.85;2.60;;;9.80;99.90;;;;;;6154759;23;20013;-82
2022/02/08 09:34:01;;;;;;;18.25;2.95;;;9.40;99.90;;;;;;6181539;23;20013;-84
2022/02/08 09:36:27;;;;;;;15.50;2.22;;;9.50;99.90;;;;;;6156291;23;20009;-84
2022/02/08 09:38:55;;;;;;;24.80;3.88;;;9.40;99.90;;;;;;6156453;23;20082;-84
2022/02/08 09:42:12;;;;;;;18.67;3.10;;;9.40;99.90;;;;;;6156822;23;20009;-84
2022/02/08 09:50:03;;;;;;;14.30;2.40;;;9.40;99.90;;;;;;6004222;23;20151;-84
2022/02/08 09:57:54;;;;;;;17.63;2.75;;;9.10;99.90;;;;;;5977561;24;20434;-84
2022/02/08 10:00:07;;;;;;;15.40;2.35;;;9.50;99.90;;;;;;5905073;24;20342;-84
2022/02/08 10:02:49;;;;;;;18.58;3.15;;;9.30;99.90;;;;;;5921941;24;20021;-82
2022/02/08 10:05:24;;;;;;;17.40;2.80;;;10.20;99.90;;;;;;5922307;24;20124;-85
2022/02/08 10:08:07;;;;;;;22.30;3.00;;;9.60;99.90;;;;;;5921616;24;20090;-83
2022/02/08 10:10:43;;;;;;;25.80;3.30;;;10.00;99.90;;;;;;5922101;24;20044;-84
2022/02/08 10:13:59;;;;;;;18.67;3.00;;;9.80;99.90;;;;;;5921884;23;20021;-83
2022/02/08 10:22:43;;;;;;;19.60;3.28;;;9.80;99.90;;;;;;5925387;24;20056;-83
2022/02/08 10:25:18;;;;;;;9.02;1.60;;;9.80;99.90;;;;;;5930211;24;20020;-85
2022/02/08 10:27:50;;;;;;;24.45;3.13;;;9.80;99.90;;;;;;5953782;23;20409;-85
2022/02/08 10:37:41;;;;;;;18.70;2.80;;;9.90;99.90;;;;;;6106774;23;20497;-84
2022/02/08 10:40:19;;;;;;;18.17;2.72;;;9.80;99.90;;;;;;6101450;23;20850;-86
2022/02/08 10:42:54;;;;;;;21.67;3.03;;;10.10;99.90;;;;;;6125197;23;20045;-86
2022/02/08 10:45:29;;;;;;;18.98;2.90;;;10.20;99.90;;;;;;6100039;23;20022;-87
2022/02/08 10:47:59;;;;;;;;;;;10.10;99.90;;;;;;6150326;23;20029;-83
2022/02/08 10:51:02;;;;;;;22.38;3.03;;;10.30;99.90;;;;;;6125885;23;19912;-84
2022/02/08 10:53:52;;;;;;;17.90;2.50;;;10.30;99.90;;;;;;6100304;23;20049;-82
2022/02/08 10:57:07;;;;;;;17.70;2.85;;;10.70;99.90;;;;;;6101220;23;20014;-82
2022/02/08 11:00:03;;;;;;;17.02;2.63;;;10.20;99.90;;;;;;6122419;23;20067;-82
2022/02/08 11:52:58;;;;;;;14.75;2.33;;;10.30;99.90;;;;;;5959374;24;20457;-80
2022/02/08 11:55:42;;;;;;;22.70;2.92;;;10.30;99.90;;;;;;5953929;24;20048;-81
2022/02/08 11:58:29;;;;;;;16.13;2.88;;;10.20;99.90;;;;;;6009598;23;20435;-81
2022/02/08 12:01:04;;;;;;;19.23;2.40;;;10.20;99.90;;;;;;6076617;23;20081;-82
2022/02/08 12:08:54;;;;;;;;;;;10.40;99.90;;;;;;6179188;23;20032;-81
2022/02/08 12:11:51;;;;;;;21.83;2.97;;;10.20;99.90;;;;;;6156352;23;20050;-82
2022/02/08 12:29:02;;;;;;;25.85;3.45;;;10.10;99.90;;;;;;6182812;23;20048;-81
2022/02/08 12:48:27;;;;;;;12.60;2.30;;;10.20;99.90;;;;;;6181548;23;20020;-81
2022/02/08 12:58:29;;;;;;;24.67;3.05;;;10.10;99.90;;;;;;6092002;23;20030;-83
2022/02/08 13:00:58;;;;;;;16.45;2.42;;;10.30;99.90;;;;;;6067927;23;20014;-84
2022/02/08 14:24:30;;;;;;;25.60;2.75;;;10.30;99.90;;;;;;6207766;23;20020;-83
2022/02/08 15:10:30;;;;;;;16.27;2.92;;;10.00;99.90;;;;;;5074692;28;20120;-75
2022/02/08 15:13:01;;;;;;;22.17;4.38;;;10.10;99.90;;;;;;5082666;28;20431;-78
2022/02/08 15:17:58;;;;;;;20.67;3.15;;;10.20;99.90;;;;;;5083149;28;20486;-78
2022/02/08 15:20:26;;;;;;;21.15;2.97;;;10.10;99.90;;;;;;5083247;28;20052;-79
2022/02/08 15:22:51;;;;;;;26.98;10.18;;;10.00;99.90;;;;;;5075883;28;20101;-76
2022/02/08 15:25:17;;;;;;;20.80;3.25;;;10.10;99.90;;;;;;5061522;28;20039;-79
2022/02/08 15:27:46;;;;;;;10.70;2.20;;;10.10;99.90;;;;;;5076000;28;20515;-78
2022/02/08 15:30:12;;;;;;;21.48;2.60;;;10.00;99.90;;;;;;5069187;28;20547;-80
2022/02/08 15:32:38;;;;;;;20.67;2.83;;;10.00;99.90;;;;;;5066400;28;20043;-77
2022/02/08 15:35:06;;;;;;;19.40;2.55;;;10.10;99.90;;;;;;5067159;28;20505;-80
2022/02/08 15:37:32;;;;;;;18.20;2.53;;;9.90;99.90;;;;;;5072885;28;20056;-81
2022/02/08 15:39:59;;;;;;;27.38;3.10;;;9.90;99.90;;;;;;5051708;28;20059;-80
2022/02/08 15:42:30;;;;;;;16.65;3.22;;;9.90;99.90;;;;;;5053967;28;20120;-79
2022/02/08 15:44:59;;;;;;;33.38;6.93;;;9.80;99.90;;;;;;5064392;28;20154;-79
2022/02/08 15:47:25;;;;;;;38.30;10.52;;;9.80;99.90;;;;;;5077947;28;20052;-79
2022/02/08 15:49:58;;;;;;;17.92;3.58;;;9.90;99.90;;;;;;5069672;28;20056;-79
2022/02/08 15:52:45;;;;;;;18.40;4.30;;;9.90;99.90;;;;;;5068907;28;20511;-79
2022/02/08 15:55:17;;;;;;;22.58;3.75;;;9.80;99.90;;;;;;5070841;28;20055;-78
2022/02/08 16:05:52;;;;;;;23.57;2.87;;;9.80;99.90;;;;;;5064556;28;20048;-79
2022/02/08 16:08:32;;;;;;;16.42;2.42;;;9.80;99.90;;;;;;5060692;28;20041;-78
2022/02/08 16:11:31;;;;;;;15.60;2.63;;;9.80;99.90;;;;;;4980630;28;20041;-80
2022/02/08 16:14:17;;;;;;;23.77;2.97;;;9.90;99.90;;;;;;5030803;28;20041;-81
2022/02/08 16:27:25;;;;;;;;;;;9.70;99.90;;;;;;5020069;28;20504;-78
2022/02/08 16:46:32;;;;;;;20.15;3.47;;;9.60;99.90;;;;;;5059334;28;20147;-82
2022/02/08 16:57:01;;;;;;;25.38;3.08;;;10.00;99.90;;;;;;5056382;28;20132;-82
2022/02/08 16:59:44;;;;;;;21.88;3.72;;;9.30;99.90;;;;;;5018470;28;20050;-84
2022/02/08 17:02:10;;;;;;;23.23;3.00;;;9.40;99.90;;;;;;5014652;28;20049;-84
2022/02/08 17:04:36;;;;;;;21.30;3.35;;;9.90;99.90;;;;;;5004554;28;20029;-80
2022/02/08 17:07:11;;;;;;;24.15;3.38;;;10.00;99.90;;;;;;4989639;23;20496;-80
2022/02/08 17:16:34;;;;;;;17.25;2.67;;;9.10;99.90;;;;;;4945257;28;20078;-79
2022/02/08 17:46:45;;;;;;;25.15;4.60;;;8.90;99.90;;;;;;4969907;28;20050;-84
2022/02/08 17:49:10;;;;;;;29.70;5.43;;;8.90;99.90;;;;;;4938551;28;20126;-80
2022/02/08 17:51:36;;;;;;;33.25;8.18;;;8.90;99.90;;;;;;4984822;28;20122;-79
2022/02/08 17:54:04;;;;;;;24.58;4.85;;;9.10;99.90;;;;;;4984471;28;20507;-78
2022/02/08 17:56:29;;;;;;;23.70;3.65;;;8.90;99.90;;;;;;5004117;28;20092;-80
2022/02/08 17:58:55;;;;;;;29.65;4.57;;;8.90;99.90;;;;;;4988279;28;20131;-79
2022/02/08 18:01:22;;;;;;;27.05;3.97;;;9.00;99.90;;;;;;5008280;28;20160;-79
2022/02/08 18:03:49;;;;;;;22.02;3.83;;;9.20;99.90;;;;;;5006630;28;20100;-80
2022/02/08 18:06:16;;;;;;;24.05;3.55;;;9.00;99.90;;;;;;5020920;28;20054;-80
2022/02/08 18:08:42;;;;;;;15.93;3.05;;;9.00;99.90;;;;;;4994925;28;20097;-81
2022/02/08 18:11:09;;;;;;;24.10;3.45;;;9.00;99.90;;;;;;4996338;28;20132;-80
2022/02/08 18:13:39;;;;;;;25.80;3.40;;;9.00;99.90;;;;;;5001087;28;20061;-80
2022/02/08 18:16:06;;;;;;;20.88;3.15;;;9.00;99.90;;;;;;4984116;28;20820;-80
2022/02/08 18:18:38;;;;;;;19.58;3.63;;;9.00;99.90;;;;;;4996103;28;20050;-80
2022/02/08 18:56:26;;;;;;;20.13;2.88;;;9.00;99.90;;;;;;4986562;28;20054;-78
2022/02/08 19:07:20;;;;;;;24.00;3.35;;;9.10;99.90;;;;;;4982772;28;20144;-77
2022/02/08 19:09:52;;;;;;;19.02;3.10;;;9.00;99.90;;;;;;4971108;28;20439;-80
2022/02/08 19:12:31;;;;;;;25.38;3.47;;;9.10;99.90;;;;;;4985106;28;20121;-81
2022/02/08 19:15:21;;;;;;;26.67;3.60;;;9.10;99.90;;;;;;4986403;28;20101;-82
2022/02/08 19:20:32;;;;;;;21.35;3.85;;;9.10;99.90;;;;;;4984781;28;20065;-83
2022/02/08 19:23:01;;;;;;;27.52;3.55;;;9.20;99.90;;;;;;4997809;28;20073;-80
2022/02/08 19:25:27;;;;;;;20.98;3.60;;;9.10;99.90;;;;;;4980938;28;20493;-81
2022/02/08 19:27:54;;;;;;;16.85;3.40;;;9.10;99.90;;;;;;4980807;28;20101;-81
2022/02/08 19:30:20;;;;;;;22.45;3.78;;;9.10;99.90;;;;;;5018756;28;20058;-80
2022/02/08 19:32:46;;;;;;;21.42;3.78;;;9.20;99.90;;;;;;4991468;28;20096;-87
2022/02/08 19:35:14;;;;;;;19.52;4.07;;;9.10;99.90;;;;;;5006439;28;20135;-79
2022/02/08 19:37:41;;;;;;;30.83;4.07;;;9.10;99.90;;;;;;4969697;28;20057;-80
2022/02/08 19:40:11;;;;;;;22.92;3.80;;;9.00;99.90;;;;;;4988213;28;20084;-83
2022/02/08 19:42:37;;;;;;;24.58;3.97;;;9.00;99.90;;;;;;4969578;28;20065;-80
2022/02/08 19:45:14;;;;;;;26.55;4.43;;;9.00;99.90;;;;;;4998711;28;20056;-82
2022/02/08 19:47:41;;;;;;;30.50;5.22;;;8.90;99.90;;;;;;4990807;28;20401;-82
2022/02/08 19:50:07;;;;;;;23.98;3.45;;;8.90;99.90;;;;;;5005546;28;20042;-83
2022/02/08 19:52:35;;;;;;;21.95;4.85;;;8.90;99.90;;;;;;4999999;28;20684;-81
2022/02/08 19:55:24;;;;;;;23.83;4.35;;;8.90;99.90;;;;;;4990076;28;22050;-81
2022/02/08 19:57:53;;;;;;;32.92;4.28;;;9.00;99.90;;;;;;5007589;28;20386;-80
2022/02/08 20:00:24;;;;;;;29.95;4.15;;;9.00;99.90;;;;;;4988951;28;20080;-80
2022/02/08 20:02:53;;;;;;;19.48;4.03;;;9.00;99.90;;;;;;5019086;28;20064;-80
2022/02/08 20:05:19;;;;;;;31.88;4.53;;;9.00;99.90;;;;;;4975756;28;20497;-81
2022/02/08 20:07:45;;;;;;;20.85;3.95;;;9.00;99.90;;;;;;5018147;28;20081;-80
2022/02/08 20:10:12;;;;;;;23.55;4.38;;;9.00;99.90;;;;;;5000716;28;20054;-82
2022/02/08 20:12:38;;;;;;;20.83;3.92;;;9.20;99.90;;;;;;4991325;28;20371;-82
2022/02/08 20:15:07;;;;;;;21.80;4.60;;;9.10;99.90;;;;;;4991816;28;20108;-80
2022/02/08 20:17:34;;;;;;;27.08;4.60;;;9.00;99.90;;;;;;4990495;28;20076;-82
2022/02/08 20:20:06;;;;;;;18.65;4.88;;;9.00;99.90;;;;;;4976333;28;20128;-81
2022/02/08 20:22:32;;;;;;;27.13;5.15;;;9.10;99.90;;;;;;5001072;28;20058;-82
2022/02/08 20:24:58;;;;;;;25.80;5.03;;;9.00;99.90;;;;;;4974379;28;20049;-82
2022/02/08 20:27:48;;;;;;;28.05;4.30;;;9.00;99.90;;;;;;4988574;28;20136;-83
2022/02/08 20:30:16;;;;;;;26.38;4.78;;;9.00;99.90;;;;;;4970059;28;20511;-80
2022/02/08 20:32:42;;;;;;;21.77;4.45;;;9.00;99.90;;;;;;5008146;28;20069;-81
2022/02/08 20:35:14;;;;;;;32.50;4.38;;;9.10;99.90;;;;;;4990597;28;20044;-82
2022/02/08 20:37:43;;;;;;;22.88;3.92;;;9.00;99.90;;;;;;4969961;28;20065;-81
2022/02/08 20:40:10;;;;;;;25.58;4.60;;;9.00;99.90;;;;;;4986920;28;20402;-81
2022/02/08 20:42:35;;;;;;;16.58;3.80;;;9.00;99.90;;;;;;4981795;28;20054;-80
2022/02/08 20:45:01;;;;;;;18.98;4.25;;;9.10;99.90;;;;;;5019916;28;20378;-80
2022/02/08 20:47:27;;;;;;;25.08;4.68;;;9.00;99.90;;;;;;4989292;28;20045;-80
2022/02/08 20:50:08;;;;;;;25.08;4.45;;;9.00;99.90;;;;;;4983304;28;20046;-78
2022/02/08 20:52:38;;;;;;;20.50;4.07;;;9.00;99.90;;;;;;4981644;28;20057;-80
2022/02/08 20:55:08;;;;;;;25.02;4.63;;;9.10;99.90;;;;;;4967841;28;20561;-82
2022/02/08 20:57:36;;;;;;;19.33;4.65;;;9.00;99.90;;;;;;4985578;28;20698;-78
2022/02/08 21:00:11;;;;;;;29.20;5.28;;;8.90;99.90;;;;;;4998410;28;20078;-80
2022/02/08 21:02:42;;;;;;;19.02;4.40;;;8.90;99.90;;;;;;5002017;28;20053;-79
2022/02/08 21:07:40;;;;;;;29.52;4.32;;;8.90;99.90;;;;;;5013523;28;20085;-82
2022/02/08 21:10:06;;;;;;;20.95;4.18;;;9.00;99.90;;;;;;4983331;28;20552;-85
2022/02/08 21:12:42;;;;;;;23.50;4.25;;;8.90;99.90;;;;;;4986085;28;20038;-79
2022/02/08 21:15:10;;;;;;;23.58;4.47;;;8.90;99.90;;;;;;4990923;28;20042;-82
2022/02/08 21:17:38;;;;;;;23.38;4.82;;;9.00;99.90;;;;;;4970687;28;20037;-78
2022/02/08 21:20:05;;;;;;;20.13;3.88;;;9.00;99.90;;;;;;5019417;28;20058;-79
2022/02/08 21:22:31;;;;;;;23.02;4.15;;;8.90;99.90;;;;;;4985961;28;20050;-79
2022/02/08 21:24:56;;;;;;;18.75;4.10;;;9.00;99.90;;;;;;4986696;28;20693;-83
2022/02/08 21:27:24;;;;;;;22.73;3.97;;;9.00;99.90;;;;;;5001418;28;20038;-81
2022/02/08 21:30:20;;;;;;;22.10;4.28;;;9.00;99.90;;;;;;4993013;28;20049;-78
2022/02/08 21:51:40;;;;;;;25.38;3.70;;;9.10;99.90;;;;;;4984841;28;20078;-81
2022/02/08 21:54:06;;;;;;;17.95;4.43;;;9.10;99.90;;;;;;4967298;28;20050;-80
2022/02/08 21:56:31;;;;;;;17.17;4.72;;;9.00;99.90;;;;;;5018701;28;20088;-79
2022/02/08 21:58:57;;;;;;;19.50;4.32;;;9.00;99.90;;;;;;5000863;28;20437;-81
2022/02/08 22:01:23;;;;;;;18.30;4.72;;;8.90;99.90;;;;;;4998113;28;20130;-80
2022/02/08 22:03:48;;;;;;;19.80;5.10;;;8.90;99.90;;;;;;5017688;28;20474;-80
2022/02/08 22:06:14;;;;;;;15.68;4.45;;;8.90;99.90;;;;;;5003608;28;20500;-81
2022/02/08 22:08:50;;;;;;;16.92;4.70;;;8.90;99.90;;;;;;4969762;28;20482;-81
2022/02/08 22:17:18;;;;;;;17.77;4.97;;;8.90;99.90;;;;;;4983732;28;20280;-81
2022/02/08 22:20:19;;;;;;;22.77;5.40;;;8.90;99.90;;;;;;4984014;28;20077;-79
2022/02/08 22:22:42;;;;;;;16.08;5.07;;;8.80;99.90;;;;;;4981675;28;20057;-80
2022/02/08 22:28:00;;;;;;;17.13;5.57;;;8.90;99.90;;;;;;4984932;28;20048;-80
2022/02/08 22:30:44;;;;;;;22.80;5.70;;;8.90;99.90;;;;;;5013539;28;20042;-81
2022/02/08 22:33:09;;;;;;;18.45;5.35;;;8.90;99.90;;;;;;5013697;28;20137;-79
2022/02/08 22:35:40;;;;;;;20.63;5.78;;;8.90;99.90;;;;;;5018352;28;20167;-80
2022/02/08 22:38:18;;;;;;;20.77;6.38;;;8.90;99.90;;;;;;5005368;28;20544;-78
2022/02/08 22:40:49;;;;;;;17.17;5.60;;;8.80;99.90;;;;;;5006023;28;20038;-82
2022/02/08 22:43:20;;;;;;;19.27;5.85;;;8.80;99.90;;;;;;5017771;28;20058;-82
2022/02/08 22:45:45;;;;;;;16.58;5.53;;;8.80;99.90;;;;;;4987572;28;20425;-81
2022/02/08 22:48:12;;;;;;;17.48;5.90;;;8.90;99.90;;;;;;5006403;28;20139;-79
2022/02/08 22:50:38;;;;;;;21.45;5.95;;;8.90;99.90;;;;;;4985461;28;20095;-78
2022/02/08 22:53:05;;;;;;;18.63;6.05;;;8.80;99.90;;;;;;5022104;28;20441;-83
2022/02/08 22:55:31;;;;;;;13.23;5.15;;;8.90;99.90;;;;;;4990725;28;20081;-78
2022/02/08 22:58:03;;;;;;;17.50;5.38;;;8.90;99.90;;;;;;4988867;28;20054;-78
2022/02/08 23:00:29;;;;;;;19.02;5.28;;;8.90;99.90;;;;;;4974015;28;20509;-82
2022/02/08 23:02:55;;;;;;;18.15;5.13;;;8.90;99.90;;;;;;4981239;28;20061;-78
2022/02/08 23:05:21;;;;;;;18.70;5.38;;;8.90;99.90;;;;;;4971803;28;20050;-80
2022/02/08 23:07:49;;;;;;;12.77;4.70;;;8.90;99.90;;;;;;4982479;28;20754;-82
2022/02/08 23:10:18;;;;;;;15.15;5.20;;;9.00;99.90;;;;;;4968828;28;20065;-80
2022/02/08 23:12:55;;;;;;;19.50;5.35;;;9.00;99.90;;;;;;4984856;28;20116;-83
2022/02/08 23:15:44;;;;;;;14.88;4.97;;;9.00;99.90;;;;;;4984362;28;20141;-79
2022/02/08 23:37:15;;;;;;;20.63;5.68;;;9.00;99.90;;;;;;4983682;28;20038;-79
2022/02/08 23:39:41;;;;;;;21.95;5.65;;;9.10;99.90;;;;;;4987625;28;20065;-80
2022/02/08 23:42:09;;;;;;;21.75;6.30;;;9.00;99.90;;;;;;4969993;28;20039;-81
2022/02/08 23:44:39;;;;;;;19.95;5.53;;;9.00;99.90;;;;;;4994859;28;20047;-82
2022/02/08 23:47:08;;;;;;;21.77;5.35;;;9.00;99.90;;;;;;4982588;28;20093;-78
2022/02/08 23:49:39;;;;;;;13.77;5.63;;;9.10;99.90;;;;;;4995182;28;20324;-82
2022/02/08 23:52:10;;;;;;;15.18;5.28;;;9.10;99.90;;;;;;5013419;28;20057;-77
2022/02/08 23:54:36;;;;;;;14.75;5.03;;;9.00;99.90;;;;;;4988982;28;20046;-82
2022/02/08 23:59:42;;;;;;;14.63;5.25;;;9.10;99.90;;;;;;4985004;28;20069;-78
